createdAt,value
2022-10-07T00:02:28.403Z,8.91
2022-10-07T00:05:30.186Z,8.88
2022-10-07T00:08:32.559Z,8.92
2022-10-07T00:11:34.421Z,8.96
2022-10-07T00:14:36.227Z,8.98
2022-10-07T00:17:38.735Z,8.96
2022-10-07T00:20:41.043Z,8.94
2022-10-07T00:23:44.131Z,8.88
2022-10-07T00:26:45.911Z,8.88
2022-10-07T00:29:47.614Z,8.91
2022-10-07T00:32:49.348Z,8.86
2022-10-07T00:35:51.142Z,8.78
2022-10-07T00:38:56.231Z,8.73
2022-10-07T00:41:57.902Z,8.66
2022-10-07T00:44:59.610Z,8.62
2022-10-07T00:48:01.403Z,8.55
2022-10-07T00:51:03.502Z,8.51
2022-10-07T00:54:10.956Z,8.43
2022-10-07T00:57:12.702Z,8.41
2022-10-07T01:00:14.978Z,8.38
2022-10-07T01:03:18.010Z,8.39
2022-10-07T01:06:19.703Z,8.36
2022-10-07T01:09:21.650Z,8.37
2022-10-07T01:12:23.346Z,8.35
2022-10-07T01:16:00.804Z,8.38
2022-10-07T01:19:03.780Z,8.31
2022-10-07T01:22:28.861Z,8.22
2022-10-07T01:25:56.859Z,8.15
2022-10-07T01:29:11.565Z,8.09
2022-10-07T01:32:19.415Z,8.12
2022-10-07T01:35:26.165Z,8.06
2022-10-07T01:38:29.720Z,8.03
2022-10-07T01:41:32.818Z,7.98
2022-10-07T01:44:35.439Z,7.93
2022-10-07T01:47:40.466Z,7.94
2022-10-07T01:50:44.690Z,7.87
2022-10-07T01:54:02.215Z,7.82
2022-10-07T01:57:29.656Z,7.76
2022-10-07T02:00:36.435Z,7.65
2022-10-07T02:04:07.223Z,7.53
2022-10-07T02:07:32.005Z,7.43
2022-10-07T02:10:48.149Z,7.38
2022-10-07T02:13:56.164Z,7.33
2022-10-07T02:17:07.879Z,7.34
2022-10-07T02:20:12.767Z,7.33
2022-10-07T02:23:21.134Z,7.34
2022-10-07T02:26:25.726Z,7.32
2022-10-07T02:29:34.016Z,7.28
2022-10-07T02:32:39.213Z,7.24
2022-10-07T02:35:51.076Z,7.15
2022-10-07T02:38:53.337Z,7.13
2022-10-07T02:42:03.623Z,7.07
2022-10-07T02:45:24.510Z,7.03
2022-10-07T02:48:40.110Z,6.96
2022-10-07T02:51:54.846Z,7.00
2022-10-07T02:55:00.461Z,7.00
2022-10-07T02:58:07.337Z,7.02
2022-10-07T03:01:16.478Z,7.07
2022-10-07T03:04:19.137Z,7.06
2022-10-07T03:07:21.838Z,7.08
2022-10-07T03:10:24.050Z,7.08
2022-10-07T03:13:26.308Z,7.13
2022-10-07T03:16:32.832Z,7.15
2022-10-07T03:19:34.612Z,7.16
2022-10-07T03:22:36.629Z,7.17
2022-10-07T03:25:39.141Z,7.19
2022-10-07T03:28:41.011Z,7.16
2022-10-07T03:31:46.468Z,7.17
2022-10-07T03:34:48.138Z,7.13
2022-10-07T03:37:49.870Z,7.07
2022-10-07T03:40:52.895Z,7.02
2022-10-07T03:43:57.439Z,7.05
2022-10-07T03:47:00.276Z,6.99
2022-10-07T03:50:02.587Z,6.99
2022-10-07T03:53:06.046Z,6.95
2022-10-07T03:56:08.311Z,6.87
2022-10-07T03:59:11.857Z,6.77
2022-10-07T04:02:14.607Z,6.74
2022-10-07T04:05:22.060Z,6.73
2022-10-07T04:09:12.572Z,6.70
2022-10-07T04:12:54.899Z,6.65
2022-10-07T04:21:24.352Z,6.58
2022-10-07T04:25:20.404Z,6.59
2022-10-07T04:32:18.845Z,6.53
2022-10-07T04:36:25.396Z,6.56
2022-10-07T04:43:39.440Z,6.51
2022-10-07T04:47:02.731Z,6.52
2022-10-07T04:50:27.637Z,6.49
2022-10-07T04:54:52.480Z,6.49
2022-10-07T04:59:24.112Z,6.48
2022-10-07T05:01:27.146Z,6.48
2022-10-07T05:04:29.930Z,6.48
2022-10-07T05:07:32.847Z,6.49
2022-10-07T05:10:38.702Z,6.48
2022-10-07T05:19:07.632Z,6.50
2022-10-07T05:23:39.342Z,6.46
2022-10-07T05:56:22.540Z,6.35
2022-10-07T05:59:29.047Z,6.32
2022-10-07T06:02:42.286Z,6.31
2022-10-07T06:06:00.200Z,6.35
2022-10-07T06:09:21.747Z,6.42
2022-10-07T06:39:59.776Z,7.08
2022-10-07T06:43:04.682Z,7.12
2022-10-07T06:46:20.403Z,7.23
2022-10-07T06:49:25.319Z,7.28
2022-10-07T06:52:27.554Z,7.34
2022-10-07T06:55:29.725Z,7.42
2022-10-07T06:58:35.280Z,7.48
2022-10-07T07:01:39.126Z,7.57
2022-10-07T07:04:41.002Z,7.66
2022-10-07T07:07:43.247Z,7.75
2022-10-07T07:10:47.094Z,7.86
2022-10-07T07:13:48.940Z,7.94
2022-10-07T07:16:52.267Z,8.02
2022-10-07T07:19:55.494Z,8.14
2022-10-07T07:22:57.171Z,8.25
2022-10-07T07:26:00.964Z,8.33
2022-10-07T07:29:05.264Z,8.48
2022-10-07T07:32:12.360Z,8.58
2022-10-07T07:35:17.372Z,8.66
2022-10-07T07:38:24.737Z,8.78
2022-10-07T07:41:31.688Z,8.88
2022-10-07T07:44:36.842Z,8.99
2022-10-07T07:47:40.921Z,9.11
2022-10-07T07:50:43.303Z,9.24
2022-10-07T07:53:46.491Z,9.36
2022-10-07T07:56:48.341Z,9.47
2022-10-07T07:59:55.185Z,9.55
2022-10-07T08:02:56.977Z,9.65
2022-10-07T08:06:03.684Z,9.78
2022-10-07T08:09:06.461Z,9.90
2022-10-07T08:12:09.009Z,10.00
2022-10-07T08:15:10.892Z,10.13
2022-10-07T08:18:13.536Z,10.19
2022-10-07T08:21:18.354Z,10.30
2022-10-07T08:24:24.986Z,10.35
2022-10-07T08:27:28.390Z,10.41
2022-10-07T08:30:30.232Z,10.48
2022-10-07T08:33:34.720Z,10.52
2022-10-07T08:36:36.760Z,10.58
2022-10-07T08:39:38.412Z,10.61
2022-10-07T08:42:42.800Z,10.71
2022-10-07T08:45:45.283Z,10.76
2022-10-07T08:49:00.899Z,10.85
2022-10-07T08:52:37.775Z,10.96
2022-10-07T08:55:45.799Z,10.97
2022-10-07T08:59:22.944Z,11.03
2022-10-07T09:03:15.210Z,11.07
2022-10-07T09:06:27.970Z,11.13
2022-10-07T09:09:34.705Z,11.20
2022-10-07T09:12:58.007Z,11.24
2022-10-07T09:16:08.897Z,11.31
2022-10-07T09:19:55.715Z,11.39
2022-10-07T09:22:58.876Z,11.50
2022-10-07T09:26:00.640Z,11.58
2022-10-07T09:29:02.350Z,11.63
2022-10-07T09:32:04.004Z,11.77
2022-10-07T09:35:06.171Z,11.88
2022-10-07T09:38:09.178Z,11.99
2022-10-07T09:41:16.530Z,12.07
2022-10-07T09:44:18.312Z,12.12
2022-10-07T09:47:24.142Z,12.23
2022-10-07T09:50:34.279Z,12.30
2022-10-07T09:53:35.909Z,12.38
2022-10-07T09:56:43.107Z,12.45
2022-10-07T09:59:44.661Z,12.60
2022-10-07T10:03:04.994Z,12.79
2022-10-07T10:06:09.161Z,12.84
2022-10-07T10:09:14.068Z,12.91
2022-10-07T10:12:20.248Z,13.05
2022-10-07T10:15:43.845Z,13.15
2022-10-07T10:18:54.914Z,13.23
2022-10-07T10:21:57.483Z,13.29
2022-10-07T10:25:17.194Z,13.40
2022-10-07T10:29:03.139Z,13.61
2022-10-07T10:32:31.262Z,13.77
2022-10-07T10:35:43.441Z,13.84
2022-10-07T10:39:03.956Z,13.85
2022-10-07T10:42:12.011Z,13.85
2022-10-07T10:45:47.814Z,13.89
2022-10-07T10:48:53.162Z,14.05
2022-10-07T10:52:23.584Z,14.18
2022-10-07T10:55:25.369Z,14.18
2022-10-07T10:58:27.474Z,14.19
2022-10-07T11:01:38.885Z,14.22
2022-10-07T11:04:55.236Z,14.24
2022-10-07T11:08:17.268Z,14.34
2022-10-07T11:11:22.402Z,14.41
2022-10-07T11:14:25.843Z,14.36
2022-10-07T11:17:34.021Z,14.40
2022-10-07T11:20:43.743Z,14.44
2022-10-07T11:24:02.151Z,14.47
2022-10-07T11:27:40.175Z,14.56
2022-10-07T11:31:02.300Z,14.62
2022-10-07T11:34:31.026Z,14.63
2022-10-07T11:37:45.238Z,14.66
2022-10-07T11:41:15.737Z,14.77
2022-10-07T11:44:32.728Z,14.88
2022-10-07T11:47:46.878Z,14.92
2022-10-07T11:51:01.659Z,14.95
2022-10-07T11:54:06.732Z,15.04
2022-10-07T11:57:20.131Z,15.07
2022-10-07T12:00:33.816Z,15.16
2022-10-07T12:03:38.390Z,15.24
2022-10-07T12:06:40.025Z,15.24
2022-10-07T12:10:01.410Z,15.29
2022-10-07T12:13:09.802Z,15.24
2022-10-07T12:16:23.822Z,15.34
2022-10-07T12:19:25.532Z,15.38
2022-10-07T12:22:28.164Z,15.38
2022-10-07T12:25:32.437Z,15.40
2022-10-07T12:28:40.764Z,15.43
2022-10-07T12:31:42.530Z,15.42
2022-10-07T12:34:44.145Z,15.48
2022-10-07T12:37:47.084Z,15.52
2022-10-07T12:40:57.991Z,15.58
2022-10-07T12:44:06.289Z,15.56
2022-10-07T12:47:14.943Z,15.64
2022-10-07T12:50:21.999Z,15.65
2022-10-07T12:53:26.241Z,15.72
2022-10-07T12:56:30.196Z,15.72
2022-10-07T12:59:50.230Z,15.75
2022-10-07T13:03:49.180Z,15.76
2022-10-07T13:06:56.373Z,15.81
2022-10-07T13:10:01.386Z,15.86
2022-10-07T13:13:16.989Z,15.90
2022-10-07T13:16:39.798Z,15.85
2022-10-07T13:19:56.925Z,15.80
2022-10-07T13:23:05.047Z,15.83
2022-10-07T13:26:07.080Z,15.78
2022-10-07T13:29:24.690Z,15.84
2022-10-07T13:32:29.804Z,15.86
2022-10-07T13:35:37.532Z,15.85
2022-10-07T13:38:41.024Z,15.86
2022-10-07T13:41:45.810Z,15.90
2022-10-07T13:44:47.448Z,15.84
2022-10-07T13:47:49.625Z,15.77
2022-10-07T13:50:54.424Z,15.87
2022-10-07T13:53:59.450Z,15.96
2022-10-07T13:57:02.844Z,15.98
2022-10-07T14:00:05.018Z,16.05
2022-10-07T14:03:15.930Z,16.13
2022-10-07T14:06:36.901Z,16.13
2022-10-07T14:09:45.976Z,16.12
2022-10-07T14:12:51.066Z,16.14
2022-10-07T14:15:56.111Z,16.15
2022-10-07T14:18:58.223Z,16.07
2022-10-07T14:22:03.066Z,16.06
2022-10-07T14:25:07.153Z,16.05
2022-10-07T14:28:19.719Z,16.06
2022-10-07T14:31:40.219Z,16.07
2022-10-07T14:35:03.483Z,16.08
2022-10-07T14:38:26.336Z,16.03
2022-10-07T14:41:29.763Z,16.02
2022-10-07T14:44:31.785Z,16.01
2022-10-07T14:47:33.609Z,15.96
2022-10-07T14:50:36.345Z,15.95
2022-10-07T14:53:40.294Z,15.94
2022-10-07T14:56:41.877Z,15.86
2022-10-07T14:59:43.502Z,15.82
2022-10-07T15:02:45.423Z,15.77
2022-10-07T15:05:48.829Z,15.76
2022-10-07T15:08:50.452Z,15.74
2022-10-07T15:11:52.088Z,15.69
2022-10-07T15:14:54.839Z,15.69
2022-10-07T15:17:56.446Z,15.67
2022-10-07T15:20:58.074Z,15.65
2022-10-07T15:24:01.726Z,15.60
2022-10-07T15:27:03.811Z,15.55
2022-10-07T15:30:07.258Z,15.52
2022-10-07T15:33:10.316Z,15.47
2022-10-07T15:36:13.192Z,15.46
2022-10-07T15:39:14.734Z,15.42
2022-10-07T15:42:16.356Z,15.33
2022-10-07T15:45:18.001Z,15.31
2022-10-07T15:48:23.215Z,15.29
2022-10-07T15:51:26.412Z,15.15
2022-10-07T15:54:28.409Z,15.06
2022-10-07T15:57:29.975Z,14.94
2022-10-07T16:00:34.497Z,14.83
2022-10-07T16:03:40.630Z,14.74
2022-10-07T16:06:49.417Z,14.65
2022-10-07T16:09:51.140Z,14.51
2022-10-07T16:12:52.825Z,14.39
2022-10-07T16:16:29.777Z,14.26
2022-10-07T16:19:32.892Z,14.10
2022-10-07T16:22:34.523Z,13.95
2022-10-07T16:25:36.133Z,13.82
2022-10-07T16:29:05.881Z,13.67
2022-10-07T16:32:10.714Z,13.53
2022-10-07T16:35:12.474Z,13.42
2022-10-07T16:38:14.102Z,13.27
2022-10-07T16:41:16.714Z,13.17
2022-10-07T16:44:19.378Z,13.09
2022-10-07T16:47:20.948Z,12.99
2022-10-07T16:50:23.032Z,12.88
2022-10-07T16:53:26.781Z,12.77
2022-10-07T16:56:30.154Z,12.68
2022-10-07T16:59:31.900Z,12.56
2022-10-07T17:02:33.517Z,12.46
2022-10-07T17:05:37.400Z,12.33
2022-10-07T17:08:43.767Z,12.31
2022-10-07T17:11:47.803Z,12.20
2022-10-07T17:14:49.838Z,12.08
2022-10-07T17:17:54.783Z,11.93
2022-10-07T17:20:56.453Z,11.83
2022-10-07T17:23:58.277Z,11.74
2022-10-07T17:26:59.878Z,11.60
2022-10-07T17:30:01.587Z,11.53
2022-10-07T17:33:03.217Z,11.43
2022-10-07T17:36:06.985Z,11.36
2022-10-07T17:39:08.904Z,11.30
2022-10-07T17:42:10.677Z,11.21
2022-10-07T17:45:12.413Z,11.13
2022-10-07T17:48:14.022Z,11.02
2022-10-07T17:51:17.153Z,10.96
2022-10-07T17:54:18.800Z,10.90
2022-10-07T17:57:21.450Z,10.83
2022-10-07T20:51:27.282Z,8.60
2022-10-07T21:03:55.458Z,9.82
2022-10-07T21:20:25.958Z,10.60
2022-10-07T21:44:55.935Z,10.81
2022-10-07T23:12:36.668Z,10.77
2022-10-07T23:20:41.964Z,10.73
2022-10-07T23:29:51.007Z,10.75
2022-10-07T23:33:22.073Z,10.70
2022-10-07T23:48:28.292Z,10.62
2022-10-07T23:55:22.340Z,10.63
